Time;durP1;ratioP1;P1;durP2;ratioP2;P2;SDS_P1;SDS_P2;PMS_P1;PMS_P2;Temp;Humidity;BMP_temperature;BMP_pressure;BME280_temperature;BME280_humidity;BME280_pressure;Samples;Min_cycle;Max_cycle;Signal;HPM_P1;HPM_P2
2021/01/05 00:02:08;;;;;;;26.95;15.85;;;;;;;;;;5090562;28;20820;-49
2021/01/05 00:04:34;;;;;;;21.65;12.23;;;;;;;;;;5091145;28;20256;-49
2021/01/05 00:07:00;;;;;;;24.40;14.47;;;;;;;;;;5090784;28;20262;-49
2021/01/05 00:09:26;;;;;;;19.25;12.18;;;;;;;;;;5089317;28;20435;-48
2021/01/05 00:12:07;;;;;;;25.70;14.57;;;;;;;;;;5090600;28;20246;-48
2021/01/05 00:14:33;;;;;;;22.67;13.40;;;;;;;;;;5089446;28;20435;-48
2021/01/05 00:16:59;;;;;;;26.80;13.77;;;;;;;;;;5090786;28;20288;-48
2021/01/05 00:19:25;;;;;;;26.30;14.37;;;;;;;;;;5089417;28;20223;-49
2021/01/05 00:21:51;;;;;;;22.60;13.90;;;;;;;;;;5090261;28;20405;-48
2021/01/05 00:24:18;;;;;;;22.73;13.70;;;;;;;;;;5090425;28;20169;-48
2021/01/05 00:26:44;;;;;;;26.30;14.63;;;;;;;;;;5090146;28;20644;-52
2021/01/05 00:29:10;;;;;;;22.13;13.57;;;;;;;;;;5090537;28;20186;-48
2021/01/05 00:31:36;;;;;;;22.95;13.70;;;;;;;;;;5090360;28;21065;-48
2021/01/05 00:34:03;;;;;;;23.08;14.38;;;;;;;;;;5090426;28;20170;-48
2021/01/05 00:36:29;;;;;;;21.67;14.20;;;;;;;;;;5090640;28;20174;-52
2021/01/05 00:38:55;;;;;;;22.45;14.30;;;;;;;;;;5090406;28;20197;-50
2021/01/05 00:41:21;;;;;;;23.33;14.65;;;;;;;;;;5090514;28;20536;-52
2021/01/05 00:43:48;;;;;;;23.23;12.52;;;;;;;;;;5090487;28;20293;-49
2021/01/05 00:46:15;;;;;;;22.05;14.20;;;;;;;;;;5090512;28;20696;-49
2021/01/05 00:48:42;;;;;;;20.35;12.70;;;;;;;;;;5090153;28;20157;-50
2021/01/05 00:51:08;;;;;;;22.15;14.15;;;;;;;;;;5090340;28;20624;-49
2021/01/05 00:53:34;;;;;;;25.67;14.65;;;;;;;;;;5090306;28;20258;-49
2021/01/05 00:56:00;;;;;;;23.60;15.30;;;;;;;;;;5090354;28;20260;-50
2021/01/05 00:58:26;;;;;;;20.37;13.90;;;;;;;;;;5092848;28;20406;-51
2021/01/05 01:00:52;;;;;;;20.47;13.03;;;;;;;;;;5094085;28;20838;-52
2021/01/05 01:03:18;;;;;;;23.88;13.63;;;;;;;;;;5093787;28;20455;-48
2021/01/05 01:05:44;;;;;;;21.02;13.23;;;;;;;;;;5093909;28;20174;-49
2021/01/05 01:08:10;;;;;;;19.48;14.05;;;;;;;;;;5094109;28;20696;-49
2021/01/05 01:10:38;;;;;;;19.60;12.70;;;;;;;;;;5092061;28;20558;-49
2021/01/05 01:13:04;;;;;;;18.77;12.23;;;;;;;;;;5093612;28;20633;-48
2021/01/05 01:15:30;;;;;;;24.30;14.10;;;;;;;;;;5093783;28;20176;-48
2021/01/05 01:17:56;;;;;;;21.97;13.70;;;;;;;;;;5093786;28;20843;-49
2021/01/05 01:20:22;;;;;;;22.60;14.10;;;;;;;;;;5093568;28;20504;-49
2021/01/05 01:22:48;;;;;;;20.35;14.00;;;;;;;;;;5093435;28;20214;-48
2021/01/05 01:25:14;;;;;;;24.63;13.83;;;;;;;;;;5093442;28;20551;-49
2021/01/05 01:27:40;;;;;;;25.40;14.90;;;;;;;;;;5093668;28;20395;-49
2021/01/05 01:30:07;;;;;;;25.33;14.70;;;;;;;;;;5093421;28;20415;-48
2021/01/05 01:32:33;;;;;;;24.98;14.00;;;;;;;;;;5093383;28;20181;-51
2021/01/05 01:34:59;;;;;;;26.00;13.13;;;;;;;;;;5093446;28;20173;-52
2021/01/05 01:37:25;;;;;;;19.67;12.77;;;;;;;;;;5093418;28;20968;-51
2021/01/05 01:39:51;;;;;;;25.23;13.63;;;;;;;;;;5092242;28;20201;-48
2021/01/05 01:42:19;;;;;;;24.48;13.85;;;;;;;;;;5092938;28;21092;-48
2021/01/05 01:44:46;;;;;;;22.45;12.57;;;;;;;;;;5093408;28;20169;-48
2021/01/05 01:47:17;;;;;;;22.98;13.35;;;;;;;;;;5093322;28;20175;-52
2021/01/05 01:49:48;;;;;;;25.35;13.38;;;;;;;;;;5093243;28;20208;-48
2021/01/05 01:52:15;;;;;;;23.35;13.18;;;;;;;;;;5092975;28;20223;-53
2021/01/05 01:54:44;;;;;;;23.08;13.52;;;;;;;;;;5093399;28;20173;-48
2021/01/05 01:57:28;;;;;;;19.40;12.10;;;;;;;;;;5093285;28;20176;-52
2021/01/05 01:59:57;;;;;;;23.55;13.38;;;;;;;;;;5093041;28;20329;-51
2021/01/05 02:02:32;;;;;;;23.35;13.25;;;;;;;;;;5091871;28;20212;-49
2021/01/05 02:05:09;;;;;;;22.67;14.52;;;;;;;;;;5092321;28;20161;-49
2021/01/05 02:07:47;;;;;;;21.92;12.45;;;;;;;;;;5092601;28;20166;-49
2021/01/05 02:10:21;;;;;;;21.58;12.85;;;;;;;;;;5089676;28;20209;-49
2021/01/05 02:13:02;;;;;;;23.33;13.82;;;;;;;;;;5092358;28;20517;-49
2021/01/05 02:15:28;;;;;;;21.90;12.35;;;;;;;;;;5092686;28;20177;-48
2021/01/05 02:18:00;;;;;;;23.87;13.53;;;;;;;;;;5092507;28;20174;-48
2021/01/05 02:20:36;;;;;;;21.00;13.70;;;;;;;;;;5092898;28;20888;-48
2021/01/05 02:23:11;;;;;;;23.90;13.43;;;;;;;;;;5092076;28;20562;-48
2021/01/05 02:25:42;;;;;;;21.85;13.10;;;;;;;;;;5092481;28;20645;-51
2021/01/05 02:28:09;;;;;;;26.95;13.15;;;;;;;;;;5092333;28;20161;-48
2021/01/05 02:30:42;;;;;;;23.10;13.30;;;;;;;;;;5092339;28;20186;-52
2021/01/05 02:33:11;;;;;;;21.60;13.07;;;;;;;;;;5091960;28;20252;-50
2021/01/05 02:35:37;;;;;;;21.52;13.50;;;;;;;;;;5092326;28;20565;-48
2021/01/05 02:38:24;;;;;;;25.10;14.33;;;;;;;;;;5092256;28;20634;-48
2021/01/05 02:40:50;;;;;;;23.33;13.68;;;;;;;;;;5089207;28;20459;-51
2021/01/05 02:43:24;;;;;;;22.93;12.67;;;;;;;;;;5091870;28;20281;-47
2021/01/05 02:46:08;;;;;;;22.55;12.98;;;;;;;;;;5092130;28;20423;-48
2021/01/05 02:48:51;;;;;;;22.58;12.43;;;;;;;;;;5091788;28;20239;-51
2021/01/05 02:51:17;;;;;;;22.13;13.10;;;;;;;;;;5092202;28;20533;-51
2021/01/05 02:53:59;;;;;;;21.35;13.20;;;;;;;;;;5092086;28;20178;-51
2021/01/05 02:56:30;;;;;;;21.83;12.23;;;;;;;;;;5091965;28;20284;-50
2021/01/05 02:59:15;;;;;;;21.83;13.18;;;;;;;;;;5091708;28;20197;-51
2021/01/05 03:02:10;;;;;;;21.92;12.70;;;;;;;;;;5091558;28;20792;-51
2021/01/05 03:04:36;;;;;;;22.35;12.00;;;;;;;;;;5053979;28;20188;-51
2021/01/05 03:07:09;;;;;;;24.80;13.90;;;;;;;;;;5091812;28;20527;-50
2021/01/05 03:10:01;;;;;;;21.45;12.35;;;;;;;;;;5091660;28;20960;-51
2021/01/05 03:12:29;;;;;;;24.20;13.10;;;;;;;;;;5090517;28;20177;-51
2021/01/05 03:15:04;;;;;;;23.15;12.63;;;;;;;;;;5091538;28;20196;-50
2021/01/05 03:17:33;;;;;;;24.77;13.45;;;;;;;;;;5091513;28;20164;-50
2021/01/05 03:20:31;;;;;;;24.58;13.70;;;;;;;;;;5090715;28;20193;-50
2021/01/05 03:23:01;;;;;;;21.77;12.90;;;;;;;;;;5068084;28;20688;-51
2021/01/05 03:28:32;;;;;;;22.50;12.73;;;;;;;;;;5090827;28;20409;-51
2021/01/05 03:31:07;;;;;;;22.80;14.07;;;;;;;;;;5091256;28;20707;-50
2021/01/05 03:33:33;;;;;;;22.92;12.13;;;;;;;;;;5091352;28;20166;-50
2021/01/05 03:35:59;;;;;;;23.17;13.00;;;;;;;;;;5091245;28;20648;-50
2021/01/05 03:38:25;;;;;;;24.50;13.13;;;;;;;;;;5091314;28;20441;-51
2021/01/05 03:40:51;;;;;;;22.60;12.40;;;;;;;;;;5090234;28;20446;-52
2021/01/05 03:43:17;;;;;;;24.77;14.15;;;;;;;;;;5090711;28;21020;-50
2021/01/05 03:45:43;;;;;;;23.17;12.20;;;;;;;;;;5091044;28;20253;-49
2021/01/05 03:48:09;;;;;;;21.60;12.47;;;;;;;;;;5090286;28;20412;-50
2021/01/05 03:50:35;;;;;;;22.85;13.20;;;;;;;;;;5090859;28;20505;-54
2021/01/05 03:53:01;;;;;;;21.57;13.00;;;;;;;;;;5090625;28;20602;-49
2021/01/05 03:55:27;;;;;;;26.67;14.70;;;;;;;;;;5088815;28;20427;-50
2021/01/05 03:57:53;;;;;;;25.67;14.30;;;;;;;;;;5090855;28;20465;-50
2021/01/05 04:00:26;;;;;;;25.67;13.17;;;;;;;;;;5089837;28;20432;-50
2021/01/05 04:02:54;;;;;;;22.30;12.73;;;;;;;;;;5090455;28;20447;-50
2021/01/05 04:05:20;;;;;;;24.85;13.25;;;;;;;;;;5090956;28;20172;-51
2021/01/05 04:07:46;;;;;;;24.77;13.38;;;;;;;;;;5090762;28;20805;-50
2021/01/05 04:10:12;;;;;;;24.80;13.60;;;;;;;;;;5089410;28;20201;-51
2021/01/05 04:12:38;;;;;;;25.60;14.50;;;;;;;;;;5090540;28;20414;-51
2021/01/05 04:15:06;;;;;;;22.95;13.85;;;;;;;;;;5089193;28;20169;-50
2021/01/05 04:17:32;;;;;;;25.45;13.63;;;;;;;;;;5090761;28;20653;-50
2021/01/05 04:19:57;;;;;;;25.67;14.40;;;;;;;;;;5090642;28;20234;-51
2021/01/05 04:22:23;;;;;;;23.50;13.17;;;;;;;;;;5090290;28;20474;-50
2021/01/05 04:24:49;;;;;;;23.73;14.90;;;;;;;;;;5090517;28;20404;-50
2021/01/05 04:27:15;;;;;;;27.63;14.80;;;;;;;;;;5090666;28;20399;-52
2021/01/05 04:29:41;;;;;;;28.50;14.30;;;;;;;;;;5090403;28;20438;-50
2021/01/05 04:32:07;;;;;;;26.20;13.93;;;;;;;;;;5092498;28;20399;-49
2021/01/05 04:34:33;;;;;;;23.40;14.27;;;;;;;;;;5094566;28;20399;-51
2021/01/05 04:36:59;;;;;;;23.00;13.17;;;;;;;;;;5094632;28;20170;-51
2021/01/05 04:39:25;;;;;;;29.10;13.75;;;;;;;;;;5092007;28;20449;-52
2021/01/05 04:41:54;;;;;;;22.33;13.07;;;;;;;;;;5094247;28;20173;-51
2021/01/05 04:44:22;;;;;;;27.83;14.23;;;;;;;;;;5094262;28;20428;-50
2021/01/05 04:46:55;;;;;;;27.92;12.70;;;;;;;;;;5094433;28;20538;-53
2021/01/05 04:49:50;;;;;;;31.90;14.82;;;;;;;;;;5094149;28;20205;-51
2021/01/05 04:52:17;;;;;;;26.17;13.95;;;;;;;;;;5094093;28;20719;-50
2021/01/05 04:54:49;;;;;;;23.02;13.00;;;;;;;;;;5094238;28;20169;-51
2021/01/05 04:57:18;;;;;;;24.05;13.30;;;;;;;;;;5094310;28;20172;-50
2021/01/05 04:59:49;;;;;;;25.15;14.60;;;;;;;;;;5094354;28;20276;-51
2021/01/05 05:02:22;;;;;;;23.73;12.35;;;;;;;;;;5092865;28;20284;-50
2021/01/05 05:04:55;;;;;;;25.02;13.02;;;;;;;;;;5094665;28;20570;-52
2021/01/05 05:07:31;;;;;;;26.70;13.57;;;;;;;;;;5094390;28;20167;-50
2021/01/05 05:10:10;;;;;;;27.90;14.15;;;;;;;;;;5094201;28;20208;-50
2021/01/05 05:12:55;;;;;;;27.48;15.63;;;;;;;;;;5093677;28;20169;-51
2021/01/05 05:15:30;;;;;;;25.90;14.75;;;;;;;;;;5094025;28;20161;-50
2021/01/05 05:17:59;;;;;;;32.03;14.07;;;;;;;;;;5093768;28;20256;-51
2021/01/05 05:20:34;;;;;;;26.15;13.73;;;;;;;;;;5093887;28;20193;-51
2021/01/05 05:23:19;;;;;;;30.75;15.77;;;;;;;;;;5093411;28;20599;-51
2021/01/05 05:25:50;;;;;;;22.05;13.00;;;;;;;;;;5093938;28;20174;-52
2021/01/05 05:28:21;;;;;;;24.10;12.73;;;;;;;;;;5093568;28;20162;-51
2021/01/05 05:30:47;;;;;;;26.80;13.82;;;;;;;;;;5093578;28;20807;-50
2021/01/05 05:33:24;;;;;;;28.87;13.80;;;;;;;;;;5091567;28;20185;-50
2021/01/05 05:35:58;;;;;;;30.13;14.48;;;;;;;;;;5093548;28;20446;-50
2021/01/05 05:38:24;;;;;;;29.25;13.60;;;;;;;;;;5093370;28;20197;-50
2021/01/05 05:41:04;;;;;;;25.50;14.30;;;;;;;;;;5093359;28;20206;-50
2021/01/05 05:43:49;;;;;;;23.45;13.82;;;;;;;;;;5092346;28;20447;-50
2021/01/05 05:46:22;;;;;;;28.67;14.60;;;;;;;;;;5093317;28;20622;-51
2021/01/05 05:48:47;;;;;;;26.70;14.45;;;;;;;;;;5092938;28;20170;-50
2021/01/05 05:51:18;;;;;;;23.77;12.90;;;;;;;;;;5092949;28;20181;-50
2021/01/05 05:54:04;;;;;;;29.67;13.73;;;;;;;;;;5093069;28;20964;-52
2021/01/05 05:56:39;;;;;;;27.67;14.77;;;;;;;;;;5093012;28;20208;-50
2021/01/05 05:59:06;;;;;;;30.75;15.00;;;;;;;;;;5092955;28;20197;-51
2021/01/05 06:01:36;;;;;;;27.75;14.07;;;;;;;;;;5092716;28;20261;-51
2021/01/05 06:04:03;;;;;;;26.80;13.30;;;;;;;;;;5091403;28;20197;-51
2021/01/05 06:06:30;;;;;;;25.48;12.75;;;;;;;;;;5092945;28;20189;-51
2021/01/05 06:08:56;;;;;;;27.42;13.50;;;;;;;;;;5092572;28;20206;-54
2021/01/05 06:11:22;;;;;;;23.53;13.00;;;;;;;;;;5092450;28;20191;-50
2021/01/05 06:13:48;;;;;;;22.80;12.83;;;;;;;;;;5092625;28;20419;-51
2021/01/05 06:16:14;;;;;;;25.73;13.93;;;;;;;;;;5092727;28;20404;-51
2021/01/05 06:18:40;;;;;;;29.33;14.27;;;;;;;;;;5092564;28;20167;-51
2021/01/05 06:21:06;;;;;;;29.23;13.50;;;;;;;;;;5092290;28;20399;-51
2021/01/05 06:23:33;;;;;;;24.25;13.27;;;;;;;;;;5092392;28;20937;-51
2021/01/05 06:25:59;;;;;;;28.92;14.85;;;;;;;;;;5092585;28;20165;-50
2021/01/05 06:28:25;;;;;;;26.80;14.75;;;;;;;;;;5092512;28;20162;-51
2021/01/05 06:30:51;;;;;;;22.47;13.60;;;;;;;;;;5092272;28;20204;-50
2021/01/05 06:33:17;;;;;;;37.08;16.05;;;;;;;;;;5091093;28;20427;-51
2021/01/05 06:35:43;;;;;;;27.75;14.32;;;;;;;;;;5092254;28;20165;-51
2021/01/05 06:38:09;;;;;;;28.97;13.73;;;;;;;;;;5092460;28;20186;-50
2021/01/05 06:40:35;;;;;;;27.37;16.07;;;;;;;;;;5092048;28;20430;-50
2021/01/05 06:43:02;;;;;;;29.47;14.53;;;;;;;;;;5091956;28;20451;-51
2021/01/05 06:45:30;;;;;;;34.20;14.90;;;;;;;;;;5092056;28;20389;-50
2021/01/05 06:47:57;;;;;;;30.90;16.90;;;;;;;;;;5092140;28;20166;-50
2021/01/05 06:50:24;;;;;;;30.45;15.63;;;;;;;;;;5090083;28;20673;-50
2021/01/05 06:52:50;;;;;;;27.95;15.43;;;;;;;;;;5091767;28;20298;-50
2021/01/05 06:55:16;;;;;;;25.50;14.88;;;;;;;;;;5090795;28;20220;-51
2021/01/05 06:57:42;;;;;;;29.77;14.07;;;;;;;;;;5091813;28;20237;-50
2021/01/05 07:00:13;;;;;;;29.83;16.03;;;;;;;;;;5091807;28;20232;-50
2021/01/05 07:02:39;;;;;;;32.72;15.25;;;;;;;;;;5089660;28;20447;-50
2021/01/05 07:05:05;;;;;;;26.80;14.20;;;;;;;;;;5091802;28;20219;-50
2021/01/05 07:07:31;;;;;;;28.67;14.77;;;;;;;;;;5091597;28;20395;-50
2021/01/05 07:09:57;;;;;;;27.60;14.40;;;;;;;;;;5091647;28;20264;-50
2021/01/05 07:12:23;;;;;;;28.03;15.20;;;;;;;;;;5091274;28;20464;-52
2021/01/05 07:14:49;;;;;;;32.40;15.10;;;;;;;;;;5091761;28;20407;-51
2021/01/05 07:17:15;;;;;;;23.75;13.88;;;;;;;;;;5091393;28;20405;-52
2021/01/05 07:19:41;;;;;;;29.35;15.48;;;;;;;;;;5091447;28;20591;-51
2021/01/05 07:22:07;;;;;;;30.35;14.85;;;;;;;;;;5091005;28;20166;-52
2021/01/05 07:24:33;;;;;;;28.07;15.10;;;;;;;;;;5091489;28;20856;-51
2021/01/05 07:26:59;;;;;;;33.60;14.95;;;;;;;;;;5091352;28;20407;-51
2021/01/05 07:29:25;;;;;;;23.63;13.57;;;;;;;;;;5091398;28;20186;-50
2021/01/05 07:31:51;;;;;;;30.73;14.00;;;;;;;;;;5091079;28;20909;-52
2021/01/05 07:34:18;;;;;;;24.83;12.60;;;;;;;;;;5089380;28;20452;-51
2021/01/05 07:36:46;;;;;;;34.20;14.43;;;;;;;;;;5090831;28;20628;-52
2021/01/05 07:39:23;;;;;;;27.52;13.32;;;;;;;;;;5090795;28;20277;-50
2021/01/05 07:41:49;;;;;;;27.05;13.85;;;;;;;;;;5090530;28;20166;-50
2021/01/05 07:44:16;;;;;;;28.50;15.65;;;;;;;;;;5090625;28;20204;-50
2021/01/05 07:46:45;;;;;;;28.73;14.55;;;;;;;;;;5091292;28;20672;-50
2021/01/05 07:49:11;;;;;;;25.73;14.40;;;;;;;;;;5090846;28;20189;-52
2021/01/05 07:51:37;;;;;;;27.80;16.45;;;;;;;;;;5090992;28;20168;-52
2021/01/05 07:54:03;;;;;;;34.93;16.80;;;;;;;;;;5090925;28;20173;-51
2021/01/05 07:56:29;;;;;;;31.13;14.70;;;;;;;;;;5091136;28;20407;-51
2021/01/05 07:58:55;;;;;;;32.30;13.77;;;;;;;;;;5090280;28;20220;-51
2021/01/05 08:01:28;;;;;;;23.40;14.30;;;;;;;;;;5090048;28;20660;-50
2021/01/05 08:03:54;;;;;;;24.83;13.98;;;;;;;;;;5088545;28;20454;-52
2021/01/05 08:06:20;;;;;;;37.47;16.30;;;;;;;;;;5090314;28;20252;-51
2021/01/05 08:08:46;;;;;;;33.03;16.13;;;;;;;;;;5090797;28;20464;-51
2021/01/05 08:11:12;;;;;;;30.03;14.17;;;;;;;;;;5090441;28;20458;-52
2021/01/05 08:13:38;;;;;;;31.00;14.73;;;;;;;;;;5090800;28;20412;-51
2021/01/05 08:16:04;;;;;;;31.57;12.97;;;;;;;;;;5090336;28;20408;-51
2021/01/05 08:18:30;;;;;;;29.52;14.82;;;;;;;;;;5080836;28;20416;-50
2021/01/05 08:20:56;;;;;;;26.80;14.80;;;;;;;;;;5069981;28;20174;-49
2021/01/05 08:23:22;;;;;;;36.92;16.42;;;;;;;;;;5071788;28;20448;-49
2021/01/05 08:25:48;;;;;;;22.10;10.33;;;;;;;;;;5082938;28;20181;-49
2021/01/05 08:28:14;;;;;;;33.37;15.80;;;;;;;;;;5071841;28;20458;-51
2021/01/05 08:30:41;;;;;;;29.08;15.30;;;;;;;;;;5072077;28;20877;-51
2021/01/05 08:33:09;;;;;;;29.05;14.38;;;;;;;;;;5075970;28;20181;-51
2021/01/05 08:38:38;;;;;;;28.60;14.95;;;;;;;;;;5035051;28;20258;-49
2021/01/05 08:41:04;;;;;;;28.00;13.90;;;;;;;;;;5030783;28;20242;-49
2021/01/05 08:43:30;;;;;;;27.30;12.80;;;;;;;;;;5030366;28;20458;-49
2021/01/05 08:45:56;;;;;;;28.97;14.00;;;;;;;;;;5043289;28;20811;-50
2021/01/05 08:48:22;;;;;;;25.92;12.55;;;;;;;;;;5030583;28;20402;-48
2021/01/05 08:50:48;;;;;;;29.40;14.33;;;;;;;;;;5046630;23;20697;-51
2021/01/05 08:53:14;;;;;;;30.60;14.25;;;;;;;;;;5065122;28;20420;-49
2021/01/05 08:55:41;;;;;;;26.13;14.00;;;;;;;;;;5069722;28;20174;-49
2021/01/05 08:58:08;;;;;;;29.88;15.23;;;;;;;;;;5069795;28;20398;-51
2021/01/05 09:00:34;;;;;;;28.65;13.23;;;;;;;;;;5068262;28;20181;-50
2021/01/05 09:03:00;;;;;;;31.10;14.60;;;;;;;;;;5050709;28;20202;-50
2021/01/05 09:05:26;;;;;;;31.13;15.00;;;;;;;;;;5049794;28;20456;-50
2021/01/05 09:07:52;;;;;;;27.43;14.20;;;;;;;;;;5049869;28;20893;-50
2021/01/05 09:10:19;;;;;;;25.27;13.07;;;;;;;;;;5041914;28;20884;-50
2021/01/05 09:12:45;;;;;;;27.77;14.60;;;;;;;;;;5049845;28;20214;-49
2021/01/05 09:15:13;;;;;;;25.30;15.03;;;;;;;;;;5049970;28;20168;-49
2021/01/05 09:17:39;;;;;;;30.25;14.10;;;;;;;;;;5049964;28;20418;-49
2021/01/05 09:20:05;;;;;;;27.80;12.50;;;;;;;;;;5052037;28;20174;-50
2021/01/05 09:22:31;;;;;;;25.52;13.48;;;;;;;;;;5053212;28;20450;-49
2021/01/05 09:24:57;;;;;;;26.93;14.20;;;;;;;;;;5053472;28;20176;-50
2021/01/05 09:27:23;;;;;;;28.83;13.23;;;;;;;;;;5053218;28;20441;-50
2021/01/05 09:29:49;;;;;;;26.63;13.30;;;;;;;;;;5053942;28;20426;-50
2021/01/05 09:32:15;;;;;;;31.58;15.18;;;;;;;;;;5053235;28;20425;-52
2021/01/05 09:34:41;;;;;;;28.40;13.95;;;;;;;;;;5051812;28;20194;-52
2021/01/05 09:37:07;;;;;;;38.40;18.77;;;;;;;;;;5051089;28;20203;-52
2021/01/05 09:39:33;;;;;;;28.48;14.90;;;;;;;;;;5052549;28;20402;-50
2021/01/05 09:42:00;;;;;;;34.80;16.30;;;;;;;;;;5052457;28;20260;-51
2021/01/05 09:44:27;;;;;;;31.40;15.07;;;;;;;;;;5052884;28;20438;-51
2021/01/05 09:46:53;;;;;;;25.30;13.90;;;;;;;;;;5051948;28;20249;-51
2021/01/05 09:49:19;;;;;;;30.50;13.85;;;;;;;;;;5052837;28;20184;-52
2021/01/05 09:51:46;;;;;;;24.27;14.30;;;;;;;;;;5052841;28;20213;-51
2021/01/05 09:54:16;;;;;;;30.63;15.68;;;;;;;;;;5052921;28;20171;-51
2021/01/05 09:56:42;;;;;;;31.48;14.18;;;;;;;;;;5052659;28;20178;-49
2021/01/05 09:59:08;;;;;;;27.27;15.07;;;;;;;;;;5052762;28;20654;-50
2021/01/05 10:01:34;;;;;;;29.57;13.77;;;;;;;;;;5052727;28;20186;-52
2021/01/05 10:04:00;;;;;;;40.13;20.00;;;;;;;;;;5052708;28;20536;-51
2021/01/05 10:06:30;;;;;;;28.33;16.63;;;;;;;;;;5052425;28;20168;-51
2021/01/05 10:08:56;;;;;;;27.63;15.02;;;;;;;;;;5052767;28;20167;-52
2021/01/05 10:11:22;;;;;;;31.85;15.00;;;;;;;;;;5051092;28;20187;-51
2021/01/05 10:13:48;;;;;;;25.30;14.25;;;;;;;;;;5052421;28;20187;-51
2021/01/05 10:16:14;;;;;;;25.63;14.88;;;;;;;;;;5051029;28;20175;-50
2021/01/05 10:18:40;;;;;;;27.55;15.25;;;;;;;;;;5052492;28;20231;-51
2021/01/05 10:21:06;;;;;;;28.20;15.07;;;;;;;;;;5052318;28;20722;-50
2021/01/05 10:23:32;;;;;;;28.20;14.98;;;;;;;;;;5052389;28;20204;-52
2021/01/05 10:25:58;;;;;;;32.63;16.60;;;;;;;;;;5052001;28;20182;-51
2021/01/05 10:28:24;;;;;;;27.33;14.03;;;;;;;;;;5052304;28;20408;-51
2021/01/05 10:30:50;;;;;;;32.60;15.93;;;;;;;;;;5051748;28;20942;-51
2021/01/05 10:33:16;;;;;;;30.05;15.93;;;;;;;;;;5052235;28;20405;-52
2021/01/05 10:35:42;;;;;;;32.27;15.87;;;;;;;;;;5051827;28;20221;-51
2021/01/05 10:38:08;;;;;;;26.70;13.97;;;;;;;;;;5052049;28;20397;-51
2021/01/05 10:40:34;;;;;;;24.83;13.90;;;;;;;;;;5052079;28;20434;-51
2021/01/05 10:43:00;;;;;;;34.10;15.33;;;;;;;;;;5051793;28;20971;-50
2021/01/05 10:45:27;;;;;;;29.83;15.25;;;;;;;;;;5050742;28;20782;-50
2021/01/05 10:47:53;;;;;;;27.05;14.90;;;;;;;;;;5051102;28;20194;-51
2021/01/05 10:50:23;;;;;;;31.88;14.75;;;;;;;;;;5051832;28;20175;-51
2021/01/05 10:52:49;;;;;;;33.28;15.40;;;;;;;;;;5051619;28;20220;-51
2021/01/05 10:55:16;;;;;;;31.13;16.33;;;;;;;;;;5051906;28;20203;-51
2021/01/05 10:57:42;;;;;;;32.03;15.82;;;;;;;;;;5051578;28;20303;-52
2021/01/05 11:00:09;;;;;;;26.52;12.77;;;;;;;;;;5051584;28;20188;-50
2021/01/05 11:02:35;;;;;;;31.48;15.38;;;;;;;;;;5051453;28;20235;-50
2021/01/05 11:05:01;;;;;;;28.97;13.90;;;;;;;;;;5051519;28;20167;-51
2021/01/05 11:07:27;;;;;;;25.88;15.15;;;;;;;;;;5051579;28;20406;-50
2021/01/05 11:09:53;;;;;;;22.30;11.33;;;;;;;;;;5051670;28;20168;-49
2021/01/05 11:12:25;;;;;;;33.10;15.60;;;;;;;;;;5051644;28;20454;-50
2021/01/05 11:14:51;;;;;;;25.05;15.13;;;;;;;;;;5050485;28;20167;-51
2021/01/05 11:17:17;;;;;;;27.93;14.10;;;;;;;;;;5051261;28;20168;-51
2021/01/05 11:19:43;;;;;;;26.90;14.03;;;;;;;;;;5051343;28;20395;-50
2021/01/05 11:22:10;;;;;;;27.95;14.98;;;;;;;;;;5051155;28;20412;-50
2021/01/05 11:24:37;;;;;;;35.80;16.70;;;;;;;;;;5051349;28;20653;-51
2021/01/05 11:27:03;;;;;;;27.25;15.05;;;;;;;;;;5050845;28;20193;-50
2021/01/05 11:29:29;;;;;;;25.80;14.50;;;;;;;;;;5051034;28;20172;-49
2021/01/05 11:31:59;;;;;;;25.97;14.20;;;;;;;;;;5051011;28;20282;-47
2021/01/05 11:34:26;;;;;;;25.65;14.77;;;;;;;;;;5046664;28;20450;-51
2021/01/05 11:36:52;;;;;;;25.13;14.07;;;;;;;;;;5050384;28;20192;-49
2021/01/05 11:39:19;;;;;;;25.50;14.38;;;;;;;;;;5049705;28;20224;-48
2021/01/05 11:41:45;;;;;;;27.25;13.38;;;;;;;;;;5049950;28;20191;-51
2021/01/05 11:44:12;;;;;;;29.70;15.55;;;;;;;;;;5056251;28;20187;-52
2021/01/05 11:46:38;;;;;;;25.48;14.07;;;;;;;;;;5049620;28;20176;-50
2021/01/05 11:49:04;;;;;;;32.33;15.50;;;;;;;;;;5050905;28;20164;-49
2021/01/05 11:51:34;;;;;;;30.25;14.77;;;;;;;;;;5050741;28;20441;-49
2021/01/05 11:54:00;;;;;;;25.73;14.13;;;;;;;;;;5049508;28;20199;-50
2021/01/05 11:56:29;;;;;;;24.80;13.43;;;;;;;;;;5050361;28;20639;-51
2021/01/05 11:58:55;;;;;;;24.52;14.23;;;;;;;;;;5050741;28;20414;-49
2021/01/05 12:01:21;;;;;;;29.15;14.68;;;;;;;;;;5064016;28;20191;-48
2021/01/05 12:03:47;;;;;;;30.25;15.88;;;;;;;;;;5070561;28;20195;-48
2021/01/05 12:06:18;;;;;;;26.30;15.20;;;;;;;;;;5070395;28;20697;-48
2021/01/05 12:08:44;;;;;;;33.03;16.08;;;;;;;;;;5070192;28;20524;-51
2021/01/05 12:11:20;;;;;;;24.20;14.50;;;;;;;;;;5070601;28;20703;-50
2021/01/05 12:13:46;;;;;;;27.10;14.40;;;;;;;;;;5070554;28;20243;-48
2021/01/05 12:16:12;;;;;;;28.40;14.77;;;;;;;;;;5065044;28;20785;-48
2021/01/05 12:18:38;;;;;;;34.67;17.25;;;;;;;;;;5050397;28;20394;-48
2021/01/05 12:21:05;;;;;;;31.98;16.23;;;;;;;;;;5050585;28;20535;-49
2021/01/05 12:23:31;;;;;;;39.03;17.25;;;;;;;;;;5050314;28;20205;-49
2021/01/05 12:25:57;;;;;;;33.60;17.87;;;;;;;;;;5050214;28;20188;-48
2021/01/05 12:28:23;;;;;;;32.97;18.77;;;;;;;;;;5050414;28;20471;-49
2021/01/05 12:30:48;;;;;;;32.63;19.27;;;;;;;;;;5050437;28;20246;-51
2021/01/05 12:33:14;;;;;;;56.93;19.70;;;;;;;;;;5050291;28;20414;-51
2021/01/05 12:35:44;;;;;;;38.60;17.50;;;;;;;;;;5050248;28;20412;-53
2021/01/05 12:38:10;;;;;;;34.10;17.42;;;;;;;;;;5050231;28;20926;-48
2021/01/05 12:40:36;;;;;;;35.00;17.20;;;;;;;;;;5050464;28;20167;-48
2021/01/05 12:43:02;;;;;;;35.57;16.77;;;;;;;;;;5050216;28;20281;-48
2021/01/05 12:45:28;;;;;;;29.95;14.88;;;;;;;;;;5048632;28;21056;-51
2021/01/05 12:47:54;;;;;;;26.23;14.63;;;;;;;;;;5049533;28;20251;-48
2021/01/05 12:50:20;;;;;;;30.60;15.57;;;;;;;;;;5050895;28;20262;-48
2021/01/05 12:52:48;;;;;;;32.80;14.95;;;;;;;;;;5051043;28;20950;-48
2021/01/05 12:55:14;;;;;;;24.95;14.38;;;;;;;;;;5045696;28;20233;-48
2021/01/05 12:57:40;;;;;;;27.40;15.65;;;;;;;;;;5034089;28;20173;-48
2021/01/05 13:00:07;;;;;;;28.77;14.90;;;;;;;;;;5034394;28;20164;-48
2021/01/05 13:02:33;;;;;;;29.25;14.48;;;;;;;;;;5033736;28;20504;-51
2021/01/05 13:04:59;;;;;;;27.92;14.55;;;;;;;;;;5033776;28;20335;-53
2021/01/05 13:07:25;;;;;;;28.90;16.10;;;;;;;;;;5033508;28;20270;-48
2021/01/05 13:09:55;;;;;;;34.05;16.65;;;;;;;;;;5033827;28;20393;-48
2021/01/05 13:12:21;;;;;;;28.02;15.60;;;;;;;;;;5048558;28;20184;-48
2021/01/05 13:14:47;;;;;;;31.25;17.33;;;;;;;;;;5041590;28;20659;-48
2021/01/05 13:17:13;;;;;;;36.75;15.98;;;;;;;;;;5045609;28;20674;-48
2021/01/05 13:19:39;;;;;;;32.40;17.38;;;;;;;;;;5049025;28;20175;-49
2021/01/05 13:22:05;;;;;;;32.30;17.77;;;;;;;;;;5052780;28;20270;-48
2021/01/05 13:24:32;;;;;;;33.43;17.50;;;;;;;;;;5053472;28;20282;-48
2021/01/05 13:26:59;;;;;;;35.72;18.65;;;;;;;;;;5053038;28;20409;-51
2021/01/05 13:29:26;;;;;;;35.38;17.92;;;;;;;;;;5053328;28;20513;-48
2021/01/05 13:31:54;;;;;;;41.75;19.05;;;;;;;;;;5053190;28;20739;-50
2021/01/05 13:34:25;;;;;;;35.97;17.58;;;;;;;;;;5052973;28;20171;-51
2021/01/05 13:36:51;;;;;;;32.63;18.38;;;;;;;;;;5052966;28;20178;-49
2021/01/05 13:39:18;;;;;;;38.23;17.47;;;;;;;;;;5052736;28;20172;-50
2021/01/05 13:41:44;;;;;;;37.45;19.52;;;;;;;;;;5063448;28;20441;-51
2021/01/05 13:44:11;;;;;;;31.10;18.00;;;;;;;;;;5072963;28;20278;-49
2021/01/05 13:46:38;;;;;;;38.70;18.63;;;;;;;;;;5058077;28;20175;-51
2021/01/05 13:49:05;;;;;;;34.22;17.52;;;;;;;;;;5051734;28;20236;-48
2021/01/05 13:51:33;;;;;;;36.35;18.90;;;;;;;;;;5052546;28;20204;-50
2021/01/05 13:54:00;;;;;;;36.15;19.70;;;;;;;;;;5052470;28;20700;-49
2021/01/05 13:56:26;;;;;;;38.63;17.77;;;;;;;;;;5037666;28;20724;-51
2021/01/05 13:58:52;;;;;;;40.25;19.33;;;;;;;;;;5051688;28;20255;-48
2021/01/05 14:01:20;;;;;;;38.78;18.75;;;;;;;;;;5052338;28;20205;-48
2021/01/05 14:03:49;;;;;;;35.25;18.67;;;;;;;;;;5052052;28;20220;-48
2021/01/05 14:06:16;;;;;;;35.55;18.70;;;;;;;;;;5052181;28;20214;-50
2021/01/05 14:08:43;;;;;;;36.05;18.40;;;;;;;;;;5052518;28;20168;-48
2021/01/05 14:11:09;;;;;;;36.70;17.15;;;;;;;;;;5052336;28;20183;-48
2021/01/05 14:13:35;;;;;;;40.67;19.05;;;;;;;;;;5052333;28;20177;-48
2021/01/05 14:16:01;;;;;;;34.77;17.27;;;;;;;;;;5051892;28;20321;-48
2021/01/05 14:18:27;;;;;;;37.72;16.95;;;;;;;;;;5051467;28;20437;-48
2021/01/05 14:20:53;;;;;;;36.37;18.80;;;;;;;;;;5052243;28;20174;-50
2021/01/05 14:23:19;;;;;;;36.13;17.60;;;;;;;;;;5053720;28;20457;-50
2021/01/05 14:25:45;;;;;;;31.83;17.83;;;;;;;;;;5050985;28;20450;-49
2021/01/05 14:28:11;;;;;;;35.88;19.15;;;;;;;;;;5049344;28;20156;-49